createdAt,value
2023-02-06T00:04:03.301Z,104387.69
2023-02-06T00:09:07.690Z,104399.19
2023-02-06T00:14:12.171Z,104394.38
2023-02-06T00:19:15.292Z,104384.91
2023-02-06T00:24:18.345Z,104395.13
2023-02-06T00:29:22.801Z,104391.78
2023-02-06T00:34:26.269Z,104388.28
2023-02-06T00:39:29.278Z,104382.13
2023-02-06T00:44:33.723Z,104378.44
2023-02-06T00:49:37.028Z,104382.50
2023-02-06T00:54:40.016Z,104389.72
2023-02-06T00:59:44.622Z,104387.69
2023-02-06T01:04:47.665Z,104388.06
2023-02-06T01:09:50.786Z,104386.41
2023-02-06T01:14:55.422Z,104397.19
2023-02-06T01:19:58.381Z,104400.72
2023-02-06T01:25:01.391Z,104397.56
2023-02-06T01:30:07.132Z,104400.00
2023-02-06T01:35:11.758Z,104414.47
2023-02-06T01:40:17.539Z,104413.75
2023-02-06T01:45:47.524Z,104415.22
2023-02-06T01:50:53.679Z,104408.53
2023-02-06T01:55:59.533Z,104406.28
2023-02-06T02:01:05.365Z,104394.97
2023-02-06T02:06:11.839Z,104392.56
2023-02-06T02:11:18.400Z,104388.81
2023-02-06T02:16:28.988Z,104384.38
2023-02-06T02:22:04.315Z,104374.34
2023-02-06T02:27:34.962Z,104364.31
2023-02-06T02:33:05.056Z,104365.41
2023-02-06T02:38:19.961Z,104372.63
2023-02-06T02:43:34.055Z,104355.91
2023-02-06T02:48:41.173Z,104368.69
2023-02-06T02:53:46.115Z,104373.53
2023-02-06T02:58:54.561Z,104355.69
2023-02-06T03:04:01.404Z,104341.53
2023-02-06T03:09:12.753Z,104348.56
2023-02-06T03:14:24.636Z,104345.19
2023-02-06T03:19:33.503Z,104341.25
2023-02-06T03:24:40.661Z,104350.31
2023-02-06T03:29:46.356Z,104340.25
2023-02-06T03:34:55.170Z,104332.44
2023-02-06T03:40:02.170Z,104334.59
2023-02-06T03:45:10.911Z,104344.22
2023-02-06T03:50:16.282Z,104343.09
2023-02-06T03:55:23.912Z,104344.91
2023-02-06T04:00:27.843Z,104349.47
2023-02-06T04:05:31.145Z,104354.66
2023-02-06T04:10:35.678Z,104376.69
2023-02-06T04:15:38.625Z,104369.75
2023-02-06T04:20:42.136Z,104365.50
2023-02-06T04:25:46.632Z,104361.59
2023-02-06T04:30:49.896Z,104362.13
2023-02-06T04:35:53.184Z,104356.53
2023-02-06T04:41:03.396Z,104351.16
2023-02-06T04:46:06.523Z,104353.94
2023-02-06T04:51:09.868Z,104334.50
2023-02-06T04:56:14.636Z,104343.94
2023-02-06T05:01:18.523Z,104335.22
2023-02-06T05:06:21.516Z,104346.53
2023-02-06T05:11:26.035Z,104337.63
2023-02-06T05:16:29.067Z,104349.13
2023-02-06T05:21:32.064Z,104361.28
2023-02-06T05:26:36.579Z,104345.81
2023-02-06T05:31:39.672Z,104358.25
2023-02-06T05:36:42.615Z,104359.81
2023-02-06T05:41:46.972Z,104375.84
2023-02-06T05:46:49.886Z,104361.50
2023-02-06T05:51:52.953Z,104369.06
2023-02-06T05:56:58.426Z,104364.16
2023-02-06T06:02:01.429Z,104372.31
2023-02-06T06:07:04.986Z,104369.19
2023-02-06T06:12:09.540Z,104367.72
2023-02-06T06:17:12.615Z,104370.00
2023-02-06T06:22:16.174Z,104372.59
2023-02-06T06:27:20.626Z,104380.41
2023-02-06T06:32:23.746Z,104383.81
2023-02-06T06:37:26.763Z,104386.50
2023-02-06T06:42:31.221Z,104371.06
2023-02-06T06:47:34.176Z,104372.91
2023-02-06T06:52:37.292Z,104379.13
2023-02-06T06:57:41.845Z,104367.25
2023-02-06T07:02:45.139Z,104369.19
2023-02-06T07:07:48.243Z,104357.06
2023-02-06T07:12:53.914Z,104371.19
2023-02-06T07:17:57.173Z,104365.25
2023-02-06T07:23:01.900Z,104367.31
2023-02-06T07:28:06.741Z,104340.81
2023-02-06T07:33:09.802Z,104346.28
2023-02-06T07:38:12.966Z,104328.50
2023-02-06T07:43:17.498Z,104331.75
2023-02-06T07:48:20.519Z,104322.88
2023-02-06T07:53:23.582Z,104324.22
2023-02-06T07:58:28.553Z,104312.22
2023-02-06T08:03:31.537Z,104313.19
2023-02-06T08:08:34.554Z,104313.59
2023-02-06T08:13:39.165Z,104310.09
2023-02-06T08:18:42.646Z,104287.66
2023-02-06T08:23:46.156Z,104298.13
2023-02-06T08:28:51.954Z,104287.41
2023-02-06T08:33:55.947Z,104276.81
2023-02-06T08:38:59.250Z,104264.00
2023-02-06T08:44:05.481Z,104254.53
2023-02-06T08:49:12.790Z,104252.81
2023-02-06T08:54:20.774Z,104257.25
2023-02-06T08:59:25.637Z,104232.72
2023-02-06T09:04:31.803Z,104235.81
2023-02-06T09:09:35.092Z,104250.22
2023-02-06T09:14:39.817Z,104251.94
2023-02-06T09:19:43.070Z,104248.03
2023-02-06T09:24:46.261Z,104266.00
2023-02-06T09:29:50.677Z,104261.88
2023-02-06T09:34:53.665Z,104257.03
2023-02-06T09:39:56.899Z,104251.88
2023-02-06T09:45:07.489Z,104271.50
2023-02-06T09:50:27.080Z,104265.09
2023-02-06T09:55:38.005Z,104270.09
2023-02-06T10:00:49.504Z,104283.41
2023-02-06T10:06:02.986Z,104272.59
2023-02-06T10:11:14.067Z,104281.38
2023-02-06T10:16:31.757Z,104291.91
2023-02-06T10:21:41.413Z,104294.28
2023-02-06T10:26:44.491Z,104284.63
2023-02-06T10:32:02.687Z,104285.97
2023-02-06T10:37:28.047Z,104276.00
2023-02-06T10:42:44.320Z,104252.31
2023-02-06T10:47:54.368Z,104268.19
2023-02-06T10:52:59.463Z,104260.41
2023-02-06T10:58:11.591Z,104246.69
2023-02-06T11:03:20.586Z,104258.28
2023-02-06T11:08:29.533Z,104245.75
2023-02-06T11:13:36.401Z,104241.22
2023-02-06T11:18:43.392Z,104248.69
2023-02-06T11:23:47.548Z,104255.00
2023-02-06T11:28:53.512Z,104263.38
2023-02-06T11:33:58.395Z,104242.41
2023-02-06T11:39:03.625Z,104236.84
2023-02-06T11:44:07.432Z,104237.44
2023-02-06T11:49:25.785Z,104216.84
2023-02-06T11:54:31.212Z,104223.91
2023-02-06T11:59:36.417Z,104224.53
2023-02-06T12:04:42.072Z,104211.31
2023-02-06T12:09:45.102Z,104197.16
2023-02-06T12:14:52.979Z,104204.53
2023-02-06T12:20:04.319Z,104203.31
2023-02-06T12:25:22.946Z,104187.28
2023-02-06T12:30:33.333Z,104193.88
2023-02-06T12:35:46.648Z,104192.81
2023-02-06T12:40:59.525Z,104176.78
2023-02-06T12:46:07.567Z,104173.84
2023-02-06T12:51:19.680Z,104159.78
2023-02-06T12:56:29.143Z,104149.03
2023-02-06T13:01:54.665Z,104145.34
2023-02-06T13:07:06.556Z,104145.03
2023-02-06T13:12:15.159Z,104131.44
2023-02-06T13:17:21.446Z,104122.66
2023-02-06T13:22:49.415Z,104114.19
2023-02-06T13:27:53.177Z,104106.78
2023-02-06T13:32:57.838Z,104101.03
2023-02-06T13:38:37.042Z,104103.81
2023-02-06T13:43:41.713Z,104105.81
2023-02-06T13:49:12.782Z,104106.47
2023-02-06T13:54:49.163Z,104102.50
2023-02-06T13:59:55.006Z,104095.09
2023-02-06T14:04:59.261Z,104077.13
2023-02-06T14:10:40.643Z,104076.69
2023-02-06T14:15:52.785Z,104071.59
2023-02-06T14:21:05.013Z,104074.13
2023-02-06T14:26:24.735Z,104083.16
2023-02-06T14:31:46.230Z,104077.53
2023-02-06T14:37:06.386Z,104089.84
2023-02-06T14:42:16.646Z,104088.28
2023-02-06T14:47:24.171Z,104094.69
2023-02-06T14:52:30.956Z,104103.16
2023-02-06T14:57:35.551Z,104089.75
2023-02-06T15:02:38.887Z,104093.69
2023-02-06T15:07:41.910Z,104098.59
2023-02-06T15:12:52.620Z,104094.22
2023-02-06T15:18:00.822Z,104112.88
2023-02-06T15:23:17.677Z,104112.31
2023-02-06T15:28:28.555Z,104119.94
2023-02-06T15:33:34.710Z,104119.47
2023-02-06T15:38:39.957Z,104118.53
2023-02-06T15:43:46.892Z,104098.69
2023-02-06T15:48:53.966Z,104092.22
2023-02-06T15:54:08.714Z,104086.13
2023-02-06T15:59:20.705Z,104106.19
2023-02-06T16:04:26.959Z,104098.75
2023-02-06T16:09:30.513Z,104093.28
2023-02-06T16:14:37.701Z,104101.47
2023-02-06T16:19:49.691Z,104098.09
2023-02-06T16:24:55.992Z,104089.50
2023-02-06T16:30:00.528Z,104097.19
2023-02-06T16:35:07.152Z,104097.41
2023-02-06T16:40:10.943Z,104097.44
2023-02-06T16:45:24.167Z,104093.28
2023-02-06T16:50:27.306Z,104101.94
2023-02-06T16:55:30.515Z,104107.50
2023-02-06T17:00:35.381Z,104107.03
2023-02-06T17:05:39.606Z,104095.50
2023-02-06T17:10:42.757Z,104124.91
2023-02-06T17:15:48.315Z,104125.97
2023-02-06T17:20:53.819Z,104130.00
2023-02-06T17:25:56.955Z,104119.81
2023-02-06T17:31:01.420Z,104130.13
2023-02-06T17:36:07.801Z,104125.66
2023-02-06T17:41:11.033Z,104124.09
2023-02-06T17:46:15.592Z,104111.00
2023-02-06T17:51:18.767Z,104117.91
2023-02-06T17:56:22.789Z,104113.25
2023-02-06T18:01:30.748Z,104119.22
2023-02-06T18:06:36.432Z,104102.38
2023-02-06T18:11:39.610Z,104106.59
2023-02-06T18:16:45.587Z,104089.75
2023-02-06T18:21:48.664Z,104092.41
2023-02-06T18:26:52.054Z,104100.69
2023-02-06T18:31:56.968Z,104095.94
2023-02-06T18:37:00.115Z,104086.94
2023-02-06T18:42:20.776Z,104086.19
2023-02-06T18:47:25.411Z,104076.53
2023-02-06T18:52:29.109Z,104079.88
2023-02-06T18:57:32.559Z,104077.59
2023-02-06T19:02:37.147Z,104066.97
2023-02-06T19:07:40.426Z,104082.31
2023-02-06T19:12:44.587Z,104063.09
2023-02-06T19:17:50.313Z,104067.28
2023-02-06T19:22:53.744Z,104056.06
2023-02-06T19:27:56.937Z,104057.78
2023-02-06T19:33:01.505Z,104060.09
2023-02-06T19:38:04.971Z,104063.88
2023-02-06T19:43:07.982Z,104059.88
2023-02-06T19:48:13.875Z,104064.75
2023-02-06T19:53:17.078Z,104065.38
2023-02-06T19:58:20.264Z,104062.25
2023-02-06T20:03:25.133Z,104068.97
2023-02-06T20:08:28.341Z,104069.53
2023-02-06T20:13:31.533Z,104057.53
2023-02-06T20:18:37.299Z,104064.03
2023-02-06T20:23:40.847Z,104059.81
2023-02-06T20:28:44.082Z,104052.19
2023-02-06T20:33:48.975Z,104061.69
2023-02-06T20:38:54.798Z,104055.03
2023-02-06T20:43:58.990Z,104053.00
2023-02-06T20:49:05.484Z,104044.69
2023-02-06T20:54:08.691Z,104045.78
2023-02-06T20:59:14.386Z,104045.41
2023-02-06T21:04:19.901Z,104047.06
2023-02-06T21:09:23.040Z,104041.91
2023-02-06T21:14:28.196Z,104040.22
2023-02-06T21:19:32.663Z,104042.44
2023-02-06T21:24:35.737Z,104040.00
2023-02-06T21:29:38.785Z,104047.63
2023-02-06T21:34:43.961Z,104045.38
2023-02-06T21:39:47.020Z,104046.31
2023-02-06T21:44:50.551Z,104045.34
2023-02-06T21:49:55.000Z,104042.38
2023-02-06T21:54:58.090Z,104044.19
2023-02-06T22:00:01.271Z,104052.53
2023-02-06T22:05:07.391Z,104051.38
2023-02-06T22:10:11.238Z,104053.81
2023-02-06T22:15:14.226Z,104053.41
2023-02-06T22:20:18.609Z,104048.03
2023-02-06T22:25:21.684Z,104056.56
2023-02-06T22:30:24.798Z,104058.75
2023-02-06T22:35:29.252Z,104049.50
2023-02-06T22:40:32.460Z,104054.13
2023-02-06T22:45:36.973Z,104048.72
2023-02-06T22:50:41.642Z,104037.97
2023-02-06T22:56:01.979Z,104040.16
2023-02-06T23:01:05.256Z,104050.00
2023-02-06T23:06:11.595Z,104044.78
2023-02-06T23:11:15.530Z,104045.50
2023-02-06T23:16:18.502Z,104038.41
2023-02-06T23:21:25.031Z,104032.78
2023-02-06T23:26:29.059Z,104043.31
2023-02-06T23:31:32.100Z,104058.16
2023-02-06T23:36:36.465Z,104050.34
2023-02-06T23:41:39.925Z,104055.13
2023-02-06T23:46:43.181Z,104044.53
2023-02-06T23:51:47.645Z,104050.03
2023-02-06T23:56:50.738Z,104049.47
